createdAt,value
2023-12-21T00:00:20.032Z,98382.28
2023-12-21T00:05:41.934Z,98359.84
2023-12-21T00:11:03.911Z,98375.53
2023-12-21T00:16:25.863Z,98347.41
2023-12-21T00:21:47.824Z,98331.34
2023-12-21T00:27:09.761Z,98339.13
2023-12-21T00:32:31.645Z,98329.44
2023-12-21T00:37:53.509Z,98327.44
2023-12-21T00:43:15.539Z,98329.28
2023-12-21T00:48:37.571Z,98318.19
2023-12-21T00:53:59.623Z,98328.47
2023-12-21T00:59:21.472Z,98304.59
2023-12-21T01:04:43.418Z,98319.50
2023-12-21T01:10:06.474Z,98305.03
2023-12-21T01:15:28.341Z,98303.66
2023-12-21T01:20:50.183Z,98282.44
2023-12-21T01:26:12.135Z,98257.38
2023-12-21T01:31:34.012Z,98268.31
2023-12-21T01:36:55.944Z,98255.47
2023-12-21T01:42:17.983Z,98256.47
2023-12-21T01:47:40.189Z,98262.91
2023-12-21T01:53:03.414Z,98248.84
2023-12-21T01:58:25.696Z,98220.28
2023-12-21T02:03:47.625Z,98214.91
2023-12-21T02:09:10.032Z,98206.91
2023-12-21T02:14:31.827Z,98207.72
2023-12-21T02:19:54.738Z,98193.72
2023-12-21T02:25:17.017Z,98167.63
2023-12-21T02:30:38.847Z,98176.75
2023-12-21T02:36:00.737Z,98138.44
2023-12-21T02:41:22.509Z,98142.56
2023-12-21T02:46:44.342Z,98129.50
2023-12-21T02:52:06.595Z,98121.47
2023-12-21T02:57:28.470Z,98112.41
2023-12-21T03:02:50.240Z,98101.47
2023-12-21T03:08:12.094Z,98074.38
2023-12-21T03:13:34.056Z,98079.72
2023-12-21T03:18:56.010Z,98089.19
2023-12-21T03:24:17.932Z,98073.53
2023-12-21T03:29:39.705Z,98069.19
2023-12-21T03:35:01.590Z,98060.41
2023-12-21T03:40:23.596Z,98049.84
2023-12-21T03:45:45.468Z,98063.00
2023-12-21T03:51:07.392Z,98050.91
2023-12-21T03:56:29.282Z,98053.16
2023-12-21T04:01:52.616Z,98062.91
2023-12-21T04:07:14.493Z,98023.47
2023-12-21T04:12:38.438Z,98034.22
2023-12-21T04:18:00.296Z,98037.94
2023-12-21T04:23:22.415Z,98032.44
2023-12-21T04:28:44.288Z,98019.09
2023-12-21T04:34:06.732Z,98008.00
2023-12-21T04:39:28.648Z,98013.88
2023-12-21T04:44:50.504Z,97996.06
2023-12-21T04:50:12.327Z,97990.28
2023-12-21T04:55:34.856Z,97991.88
2023-12-21T05:00:56.825Z,97968.81
2023-12-21T05:06:18.668Z,97962.97
2023-12-21T05:11:41.080Z,97950.56
2023-12-21T05:17:02.922Z,97962.50
2023-12-21T05:22:24.755Z,97955.28
2023-12-21T05:27:46.707Z,97954.00
2023-12-21T05:33:08.743Z,97942.91
2023-12-21T05:38:30.883Z,97936.28
2023-12-21T05:43:52.771Z,97925.78
2023-12-21T05:49:14.756Z,97914.09
2023-12-21T05:54:36.728Z,97930.19
2023-12-21T05:59:58.782Z,97914.78
2023-12-21T06:05:20.647Z,97908.72
2023-12-21T06:10:42.705Z,97909.66
2023-12-21T06:16:05.124Z,97882.84
2023-12-21T06:21:27.172Z,97882.31
2023-12-21T06:26:48.913Z,97864.81
2023-12-21T06:32:11.687Z,97834.97
2023-12-21T06:37:33.666Z,97836.16
2023-12-21T06:42:55.696Z,97815.38
2023-12-21T06:48:17.668Z,97815.13
2023-12-21T06:53:39.968Z,97820.00
2023-12-21T06:59:02.010Z,97811.69
2023-12-21T07:04:23.858Z,97811.19
2023-12-21T07:09:45.708Z,97797.81
2023-12-21T07:15:07.958Z,97797.94
2023-12-21T07:20:31.653Z,97790.72
2023-12-21T07:25:53.398Z,97796.06
2023-12-21T07:31:17.218Z,97772.25
2023-12-21T07:36:39.177Z,97766.94
2023-12-21T07:42:01.942Z,97764.47
2023-12-21T07:47:23.915Z,97754.69
2023-12-21T07:52:46.137Z,97755.78
2023-12-21T07:58:08.159Z,97743.88
2023-12-21T08:03:30.272Z,97738.00
2023-12-21T08:08:58.059Z,97740.84
2023-12-21T08:14:21.429Z,97744.25
2023-12-21T08:19:43.379Z,97739.63
2023-12-21T08:25:05.587Z,97736.28
2023-12-21T08:30:27.469Z,97714.72
2023-12-21T08:35:49.304Z,97717.53
2023-12-21T08:41:11.232Z,97728.69
2023-12-21T08:46:33.140Z,97719.66
2023-12-21T08:51:55.152Z,97704.53
2023-12-21T08:57:22.683Z,97719.84
2023-12-21T09:02:44.692Z,97720.88
2023-12-21T09:08:07.475Z,97717.19
2023-12-21T09:13:29.328Z,97688.28
2023-12-21T09:18:53.383Z,97687.00
2023-12-21T09:24:15.362Z,97660.97
2023-12-21T09:29:38.468Z,97648.25
2023-12-21T09:35:00.344Z,97622.97
2023-12-21T09:40:25.890Z,97625.94
2023-12-21T09:45:49.652Z,97626.28
2023-12-21T09:51:16.238Z,97589.94
2023-12-21T09:56:38.272Z,97592.63
2023-12-21T10:02:00.301Z,97545.19
2023-12-21T10:07:24.119Z,97584.59
2023-12-21T10:12:46.360Z,97594.06
2023-12-21T10:18:08.422Z,97558.44
2023-12-21T10:23:30.459Z,97532.19
2023-12-21T10:28:55.873Z,97497.09
2023-12-21T10:34:19.029Z,97498.03
2023-12-21T10:39:41.710Z,97469.19
2023-12-21T10:45:13.171Z,97454.91
2023-12-21T10:50:39.736Z,97422.31
2023-12-21T10:56:02.646Z,97412.22
2023-12-21T11:01:25.634Z,97398.25
2023-12-21T11:06:48.534Z,97370.53
2023-12-21T11:12:10.420Z,97369.63
2023-12-21T11:17:34.988Z,97340.53
2023-12-21T11:22:57.122Z,97326.25
2023-12-21T11:28:29.653Z,97306.34
2023-12-21T11:33:51.672Z,97324.47
2023-12-21T11:39:16.875Z,97295.09
2023-12-21T11:44:39.394Z,97295.81
2023-12-21T11:50:08.456Z,97273.00
2023-12-21T11:55:30.676Z,97247.16
2023-12-21T12:00:55.062Z,97238.16
2023-12-21T12:06:17.807Z,97216.41
2023-12-21T12:11:42.932Z,97184.50
2023-12-21T12:17:07.540Z,97149.13
2023-12-21T12:22:29.549Z,97147.63
2023-12-21T12:27:51.636Z,97141.38
2023-12-21T12:33:14.229Z,97099.78
2023-12-21T12:38:36.617Z,97117.78
2023-12-21T12:43:59.550Z,97097.66
2023-12-21T12:49:23.571Z,97125.63
2023-12-21T12:54:49.228Z,97105.97
2023-12-21T13:00:13.997Z,97077.66
2023-12-21T13:05:36.057Z,97088.19
2023-12-21T13:10:58.134Z,97094.38
2023-12-21T13:16:20.385Z,97113.91
2023-12-21T13:21:45.065Z,97138.94
2023-12-21T13:27:07.784Z,97127.31
2023-12-21T13:32:30.544Z,97114.75
2023-12-21T13:37:52.725Z,97094.91
2023-12-21T13:43:14.790Z,97074.53
2023-12-21T13:48:37.140Z,97076.03
2023-12-21T13:53:59.303Z,97042.41
2023-12-21T13:59:21.150Z,97061.00
2023-12-21T14:04:43.207Z,97059.97
2023-12-21T14:10:05.791Z,97077.38
2023-12-21T14:15:28.669Z,97049.31
2023-12-21T14:20:52.857Z,97045.88
2023-12-21T14:26:15.014Z,97052.03
2023-12-21T14:31:36.906Z,97060.19
2023-12-21T14:36:58.814Z,97050.25
2023-12-21T14:42:20.640Z,97047.53
2023-12-21T14:47:42.760Z,97026.94
2023-12-21T14:53:04.665Z,97034.47
2023-12-21T14:58:26.622Z,97027.13
2023-12-21T15:03:48.592Z,97020.16
2023-12-21T15:09:10.764Z,97030.56
2023-12-21T15:14:32.710Z,97023.25
2023-12-21T15:19:54.584Z,97024.06
2023-12-21T15:25:16.462Z,96993.06
2023-12-21T15:30:38.320Z,96987.47
2023-12-21T15:36:00.399Z,96998.72
2023-12-21T15:41:23.412Z,97000.13
2023-12-21T15:46:45.356Z,97019.69
2023-12-21T15:52:08.685Z,97016.03
2023-12-21T15:57:31.163Z,97005.00
2023-12-21T16:02:54.891Z,96991.84
2023-12-21T16:08:16.809Z,97017.91
2023-12-21T16:13:39.085Z,96978.69
2023-12-21T16:19:01.191Z,96963.06
2023-12-21T16:24:26.518Z,96982.13
2023-12-21T16:29:48.430Z,96979.78
2023-12-21T16:35:11.643Z,96980.03
2023-12-21T16:40:33.669Z,96981.91
2023-12-21T16:45:55.599Z,96990.91
2023-12-21T16:51:17.541Z,97025.56
2023-12-21T16:56:42.204Z,97022.56
2023-12-21T17:02:04.321Z,97013.09
2023-12-21T17:07:26.341Z,97028.66
2023-12-21T17:12:48.353Z,97020.88
2023-12-21T17:18:11.236Z,97027.19
2023-12-21T17:23:33.382Z,97004.75
2023-12-21T17:28:55.287Z,97050.53
2023-12-21T17:34:20.229Z,97033.31
2023-12-21T17:39:42.508Z,97023.56
2023-12-21T17:45:09.918Z,97017.97
2023-12-21T17:50:32.564Z,97017.97
2023-12-21T17:55:54.498Z,97030.66
2023-12-21T18:01:16.579Z,97024.16
2023-12-21T18:06:38.465Z,97016.72
2023-12-21T18:12:00.396Z,97009.16
2023-12-21T18:17:22.257Z,96983.31
2023-12-21T18:22:44.219Z,96991.72
2023-12-21T18:28:06.200Z,96981.72
2023-12-21T18:33:28.055Z,96977.47
2023-12-21T18:38:50.145Z,96969.53
2023-12-21T18:44:12.043Z,96959.66
2023-12-21T18:49:34.159Z,96943.25
2023-12-21T18:54:56.178Z,96952.66
2023-12-21T19:00:20.193Z,96941.88
2023-12-21T19:05:46.519Z,96948.91
2023-12-21T19:11:19.902Z,96944.81
2023-12-21T19:16:44.553Z,96965.88
2023-12-21T19:22:06.503Z,96986.50
2023-12-21T19:27:28.357Z,96991.34
2023-12-21T19:32:50.312Z,97014.63
2023-12-21T19:38:12.318Z,97027.97
2023-12-21T19:43:34.543Z,97052.16
2023-12-21T19:48:56.605Z,97076.72
2023-12-21T19:54:18.568Z,97067.19
2023-12-21T19:59:40.492Z,97090.94
2023-12-21T20:05:02.532Z,97065.72
2023-12-21T20:10:24.688Z,97081.13
2023-12-21T20:15:46.596Z,97076.34
2023-12-21T20:21:08.454Z,97088.34
2023-12-21T20:26:30.337Z,97080.66
2023-12-21T20:31:52.245Z,97096.16
2023-12-21T20:37:14.236Z,97105.16
2023-12-21T20:42:36.073Z,97102.56
2023-12-21T20:47:58.498Z,97105.88
2023-12-21T20:53:22.223Z,97104.81
2023-12-21T20:58:44.164Z,97110.38
2023-12-21T21:04:05.938Z,97086.16
2023-12-21T21:09:29.411Z,97093.66
2023-12-21T21:14:51.199Z,97133.16
2023-12-21T21:20:13.157Z,97126.75
2023-12-21T21:25:35.045Z,97155.56
2023-12-21T21:31:00.502Z,97169.13
2023-12-21T21:36:24.177Z,97173.38
2023-12-21T21:41:49.381Z,97179.91
2023-12-21T21:47:11.232Z,97200.16
2023-12-21T21:52:33.197Z,97220.69
2023-12-21T21:57:55.188Z,97218.75
2023-12-21T22:03:17.156Z,97206.66
2023-12-21T22:08:38.993Z,97223.47
2023-12-21T22:14:02.272Z,97210.94
2023-12-21T22:19:24.339Z,97227.75
2023-12-21T22:24:46.247Z,97216.22
2023-12-21T22:30:08.688Z,97210.53
2023-12-21T22:35:31.641Z,97223.03
2023-12-21T22:40:53.702Z,97246.78
2023-12-21T22:46:15.804Z,97249.16
2023-12-21T22:51:37.712Z,97275.03
2023-12-21T22:56:59.530Z,97263.25
2023-12-21T23:02:21.473Z,97277.25
2023-12-21T23:07:44.215Z,97279.66
2023-12-21T23:13:06.224Z,97286.53
2023-12-21T23:18:28.177Z,97284.13
2023-12-21T23:23:50.091Z,97272.88
2023-12-21T23:29:11.976Z,97261.84
2023-12-21T23:34:33.782Z,97279.22
2023-12-21T23:40:00.145Z,97268.06
2023-12-21T23:45:22.414Z,97290.75
2023-12-21T23:50:44.221Z,97281.16
2023-12-21T23:56:06.055Z,97291.50
